sensor_id;sensor_type;location;lat;lon;timestamp;pressure;altitude;pressure_sealevel;temperature;humidity
37170;BME280;23062;13.952;100.608;2023-01-04T00:01:56;1015.37;;;28.55;49.07
37170;BME280;23062;13.952;100.608;2023-01-04T00:06:26;1015.45;;;28.56;49.79
37170;BME280;23062;13.952;100.608;2023-01-04T00:15:27;1015.55;;;28.58;49.95
37170;BME280;23062;13.952;100.608;2023-01-04T00:19:55;1015.57;;;28.59;49.92
37170;BME280;23062;13.952;100.608;2023-01-04T00:24:21;1015.58;;;28.56;50.20
37170;BME280;23062;13.952;100.608;2023-01-04T00:28:52;1015.69;;;28.56;49.95
37170;BME280;23062;13.952;100.608;2023-01-04T00:33:16;1015.70;;;28.57;49.46
37170;BME280;23062;13.952;100.608;2023-01-04T00:37:42;1015.72;;;28.58;49.84
37170;BME280;23062;13.952;100.608;2023-01-04T00:42:08;1015.87;;;28.49;49.59
37170;BME280;23062;13.952;100.608;2023-01-04T00:46:35;1015.97;;;28.43;49.75
37170;BME280;23062;13.952;100.608;2023-01-04T00:51:01;1016.02;;;28.39;49.60
37170;BME280;23062;13.952;100.608;2023-01-04T00:55:30;1016.06;;;28.40;49.76
37170;BME280;23062;13.952;100.608;2023-01-04T00:59:56;1016.12;;;28.39;49.87
37170;BME280;23062;13.952;100.608;2023-01-04T01:04:23;1016.13;;;28.34;49.64
37170;BME280;23062;13.952;100.608;2023-01-04T01:08:50;1016.18;;;28.34;49.62
37170;BME280;23062;13.952;100.608;2023-01-04T01:13:17;1016.20;;;28.30;49.42
37170;BME280;23062;13.952;100.608;2023-01-04T01:17:44;1016.23;;;28.33;49.95
37170;BME280;23062;13.952;100.608;2023-01-04T01:22:10;1016.26;;;28.33;50.24
37170;BME280;23062;13.952;100.608;2023-01-04T01:26:37;1016.39;;;28.32;49.50
37170;BME280;23062;13.952;100.608;2023-01-04T01:31:09;1016.39;;;28.30;49.50
37170;BME280;23062;13.952;100.608;2023-01-04T01:35:36;1016.49;;;28.27;48.78
37170;BME280;23062;13.952;100.608;2023-01-04T01:40:02;1016.55;;;28.30;48.40
37170;BME280;23062;13.952;100.608;2023-01-04T01:49:42;1016.59;;;28.35;47.70
37170;BME280;23062;13.952;100.608;2023-01-04T01:54:06;1016.62;;;28.35;46.65
37170;BME280;23062;13.952;100.608;2023-01-04T01:58:33;1016.67;;;28.31;46.90
37170;BME280;23062;13.952;100.608;2023-01-04T02:03:10;1016.81;;;28.29;46.46
37170;BME280;23062;13.952;100.608;2023-01-04T02:07:35;1016.79;;;28.26;46.28
37170;BME280;23062;13.952;100.608;2023-01-04T02:12:02;1016.83;;;28.20;46.52
37170;BME280;23062;13.952;100.608;2023-01-04T02:16:36;1016.82;;;28.20;46.59
37170;BME280;23062;13.952;100.608;2023-01-04T02:21:05;1016.78;;;28.25;46.65
37170;BME280;23062;13.952;100.608;2023-01-04T02:25:38;1016.76;;;28.33;46.88
37170;BME280;23062;13.952;100.608;2023-01-04T02:44:44;1016.72;;;28.48;46.16
37170;BME280;23062;13.952;100.608;2023-01-04T02:49:11;1016.77;;;28.48;45.84
37170;BME280;23062;13.952;100.608;2023-01-04T02:54:02;1016.81;;;28.48;46.70
37170;BME280;23062;13.952;100.608;2023-01-04T03:03:23;1016.79;;;28.57;45.86
37170;BME280;23062;13.952;100.608;2023-01-04T03:08:10;1016.74;;;28.59;46.06
37170;BME280;23062;13.952;100.608;2023-01-04T03:12:38;1016.77;;;28.64;46.05
37170;BME280;23062;13.952;100.608;2023-01-04T03:17:04;1016.73;;;28.67;46.34
37170;BME280;23062;13.952;100.608;2023-01-04T03:21:32;1016.73;;;28.65;46.52
37170;BME280;23062;13.952;100.608;2023-01-04T03:26:25;1016.64;;;28.71;46.37
37170;BME280;23062;13.952;100.608;2023-01-04T03:30:54;1016.66;;;28.75;45.71
37170;BME280;23062;13.952;100.608;2023-01-04T03:35:40;1016.62;;;28.84;46.40
37170;BME280;23062;13.952;100.608;2023-01-04T03:40:26;1016.57;;;28.85;46.48
37170;BME280;23062;13.952;100.608;2023-01-04T03:45:18;1016.52;;;28.93;46.47
37170;BME280;23062;13.952;100.608;2023-01-04T03:50:06;1016.42;;;28.97;46.51
37170;BME280;23062;13.952;100.608;2023-01-04T03:54:35;1016.33;;;28.98;46.44
37170;BME280;23062;13.952;100.608;2023-01-04T03:59:02;1016.29;;;28.99;47.27
37170;BME280;23062;13.952;100.608;2023-01-04T04:03:30;1016.25;;;29.04;46.46
37170;BME280;23062;13.952;100.608;2023-01-04T04:08:15;1016.11;;;29.10;46.50
37170;BME280;23062;13.952;100.608;2023-01-04T04:12:54;1016.09;;;29.11;45.85
37170;BME280;23062;13.952;100.608;2023-01-04T04:17:26;1016.05;;;29.16;45.85
37170;BME280;23062;13.952;100.608;2023-01-04T04:21:53;1016.02;;;29.20;46.27
37170;BME280;23062;13.952;100.608;2023-01-04T04:26:19;1015.95;;;29.24;45.35
37170;BME280;23062;13.952;100.608;2023-01-04T04:30:50;1015.88;;;29.26;45.90
37170;BME280;23062;13.952;100.608;2023-01-04T04:35:18;1015.82;;;29.30;45.34
37170;BME280;23062;13.952;100.608;2023-01-04T04:39:44;1015.79;;;29.33;45.25
37170;BME280;23062;13.952;100.608;2023-01-04T04:44:12;1015.72;;;29.35;45.52
37170;BME280;23062;13.952;100.608;2023-01-04T04:48:39;1015.73;;;29.37;45.39
37170;BME280;23062;13.952;100.608;2023-01-04T04:53:04;1015.64;;;29.40;45.34
37170;BME280;23062;13.952;100.608;2023-01-04T04:57:31;1015.61;;;29.45;44.63
37170;BME280;23062;13.952;100.608;2023-01-04T05:01:57;1015.57;;;29.48;44.88
37170;BME280;23062;13.952;100.608;2023-01-04T05:06:24;1015.49;;;29.51;44.53
37170;BME280;23062;13.952;100.608;2023-01-04T05:10:52;1015.37;;;29.55;44.34
37170;BME280;23062;13.952;100.608;2023-01-04T05:15:19;1015.28;;;29.58;44.55
37170;BME280;23062;13.952;100.608;2023-01-04T05:19:45;1015.19;;;29.58;44.83
37170;BME280;23062;13.952;100.608;2023-01-04T05:24:12;1015.11;;;29.61;44.84
37170;BME280;23062;13.952;100.608;2023-01-04T05:28:38;1015.04;;;29.61;44.83
37170;BME280;23062;13.952;100.608;2023-01-04T05:33:05;1014.95;;;29.62;44.93
37170;BME280;23062;13.952;100.608;2023-01-04T05:37:31;1014.89;;;29.65;44.75
37170;BME280;23062;13.952;100.608;2023-01-04T05:41:58;1014.76;;;29.68;44.79
37170;BME280;23062;13.952;100.608;2023-01-04T05:46:42;1014.68;;;29.72;44.76
37170;BME280;23062;13.952;100.608;2023-01-04T05:51:08;1014.54;;;29.75;44.41
37170;BME280;23062;13.952;100.608;2023-01-04T05:55:35;1014.50;;;29.80;44.34
37170;BME280;23062;13.952;100.608;2023-01-04T06:00:01;1014.32;;;29.79;44.36
37170;BME280;23062;13.952;100.608;2023-01-04T06:04:27;1014.15;;;29.82;44.22
37170;BME280;23062;13.952;100.608;2023-01-04T06:08:53;1014.08;;;29.84;44.22
37170;BME280;23062;13.952;100.608;2023-01-04T06:13:19;1013.96;;;29.83;44.45
37170;BME280;23062;13.952;100.608;2023-01-04T06:17:46;1013.79;;;29.89;44.49
37170;BME280;23062;13.952;100.608;2023-01-04T06:22:12;1013.77;;;29.95;44.58
37170;BME280;23062;13.952;100.608;2023-01-04T06:26:40;1013.67;;;29.96;44.54
37170;BME280;23062;13.952;100.608;2023-01-04T06:31:07;1013.60;;;29.97;44.46
37170;BME280;23062;13.952;100.608;2023-01-04T06:35:33;1013.46;;;30.00;44.17
37170;BME280;23062;13.952;100.608;2023-01-04T06:40:00;1013.33;;;30.02;43.77
37170;BME280;23062;13.952;100.608;2023-01-04T06:44:27;1013.22;;;30.02;44.00
37170;BME280;23062;13.952;100.608;2023-01-04T06:48:53;1013.16;;;30.04;43.95
37170;BME280;23062;13.952;100.608;2023-01-04T06:53:19;1013.09;;;30.07;43.81
37170;BME280;23062;13.952;100.608;2023-01-04T06:57:45;1013.00;;;30.08;43.88
37170;BME280;23062;13.952;100.608;2023-01-04T07:02:15;1012.95;;;30.09;43.88
37170;BME280;23062;13.952;100.608;2023-01-04T07:06:41;1012.85;;;30.11;43.76
37170;BME280;23062;13.952;100.608;2023-01-04T07:11:08;1012.80;;;30.12;43.66
37170;BME280;23062;13.952;100.608;2023-01-04T07:15:34;1012.66;;;30.14;43.77
37170;BME280;23062;13.952;100.608;2023-01-04T07:20:04;1012.68;;;30.12;43.81
37170;BME280;23062;13.952;100.608;2023-01-04T07:24:31;1012.46;;;30.14;43.49
37170;BME280;23062;13.952;100.608;2023-01-04T07:28:57;1012.47;;;30.14;43.64
37170;BME280;23062;13.952;100.608;2023-01-04T07:33:40;1012.35;;;30.15;43.62
37170;BME280;23062;13.952;100.608;2023-01-04T07:38:06;1012.31;;;30.13;43.82
37170;BME280;23062;13.952;100.608;2023-01-04T07:42:32;1012.23;;;30.15;43.63
37170;BME280;23062;13.952;100.608;2023-01-04T07:47:02;1012.21;;;30.14;43.54
37170;BME280;23062;13.952;100.608;2023-01-04T07:51:30;1012.12;;;30.16;43.22
37170;BME280;23062;13.952;100.608;2023-01-04T07:55:59;1012.11;;;30.20;43.09
37170;BME280;23062;13.952;100.608;2023-01-04T08:00:26;1012.08;;;30.24;42.75
37170;BME280;23062;13.952;100.608;2023-01-04T08:04:56;1012.10;;;30.23;42.85
37170;BME280;23062;13.952;100.608;2023-01-04T08:09:22;1012.04;;;30.26;42.62
37170;BME280;23062;13.952;100.608;2023-01-04T08:13:48;1011.91;;;30.24;42.86
37170;BME280;23062;13.952;100.608;2023-01-04T08:18:15;1011.89;;;30.25;42.89
37170;BME280;23062;13.952;100.608;2023-01-04T08:22:41;1011.89;;;30.24;43.09
37170;BME280;23062;13.952;100.608;2023-01-04T08:27:07;1011.89;;;30.26;42.82
37170;BME280;23062;13.952;100.608;2023-01-04T08:31:36;1011.82;;;30.26;42.78
37170;BME280;23062;13.952;100.608;2023-01-04T08:36:10;1011.72;;;30.28;42.89
37170;BME280;23062;13.952;100.608;2023-01-04T08:40:36;1011.74;;;30.29;42.97
37170;BME280;23062;13.952;100.608;2023-01-04T08:45:02;1011.79;;;30.30;43.03
37170;BME280;23062;13.952;100.608;2023-01-04T08:49:29;1011.79;;;30.29;43.11
37170;BME280;23062;13.952;100.608;2023-01-04T08:53:55;1011.71;;;30.31;43.01
37170;BME280;23062;13.952;100.608;2023-01-04T08:58:22;1011.74;;;30.31;42.82
37170;BME280;23062;13.952;100.608;2023-01-04T09:02:48;1011.68;;;30.32;42.41
37170;BME280;23062;13.952;100.608;2023-01-04T09:07:15;1011.69;;;30.32;42.53
37170;BME280;23062;13.952;100.608;2023-01-04T09:11:42;1011.71;;;30.27;42.56
37170;BME280;23062;13.952;100.608;2023-01-04T09:16:13;1011.79;;;30.30;42.54
37170;BME280;23062;13.952;100.608;2023-01-04T09:20:39;1011.68;;;30.30;42.40
37170;BME280;23062;13.952;100.608;2023-01-04T09:25:06;1011.68;;;30.32;42.33
37170;BME280;23062;13.952;100.608;2023-01-04T09:29:32;1011.73;;;30.29;42.57
37170;BME280;23062;13.952;100.608;2023-01-04T09:33:59;1011.73;;;30.32;42.47
37170;BME280;23062;13.952;100.608;2023-01-04T09:38:25;1011.76;;;30.30;43.63
37170;BME280;23062;13.952;100.608;2023-01-04T09:42:53;1011.73;;;30.32;42.65
37170;BME280;23062;13.952;100.608;2023-01-04T09:52:21;1011.87;;;30.38;41.91
37170;BME280;23062;13.952;100.608;2023-01-04T09:56:52;1011.91;;;30.37;41.83
37170;BME280;23062;13.952;100.608;2023-01-04T10:01:37;1012.01;;;30.37;41.81
37170;BME280;23062;13.952;100.608;2023-01-04T10:05:57;1012.09;;;30.39;41.65
37170;BME280;23062;13.952;100.608;2023-01-04T10:10:45;1012.09;;;30.38;41.89
37170;BME280;23062;13.952;100.608;2023-01-04T10:15:29;1012.11;;;30.38;41.86
37170;BME280;23062;13.952;100.608;2023-01-04T10:38:27;1012.24;;;30.30;42.15
37170;BME280;23062;13.952;100.608;2023-01-04T10:42:59;1012.25;;;30.28;42.19
37170;BME280;23062;13.952;100.608;2023-01-04T10:57:04;1012.52;;;30.28;42.51
37170;BME280;23062;13.952;100.608;2023-01-04T11:01:43;1012.58;;;30.27;42.44
37170;BME280;23062;13.952;100.608;2023-01-04T11:06:20;1012.66;;;30.26;42.54
37170;BME280;23062;13.952;100.608;2023-01-04T11:10:52;1012.73;;;30.23;42.79
37170;BME280;23062;13.952;100.608;2023-01-04T11:15:15;1012.70;;;30.21;43.20
37170;BME280;23062;13.952;100.608;2023-01-04T11:19:42;1012.77;;;30.18;43.51
37170;BME280;23062;13.952;100.608;2023-01-04T11:24:10;1012.88;;;30.17;43.41
37170;BME280;23062;13.952;100.608;2023-01-04T11:28:49;1012.93;;;30.15;43.75
37170;BME280;23062;13.952;100.608;2023-01-04T11:33:18;1012.99;;;30.13;43.87
37170;BME280;23062;13.952;100.608;2023-01-04T11:37:45;1013.02;;;30.11;43.92
37170;BME280;23062;13.952;100.608;2023-01-04T11:42:16;1012.99;;;30.07;44.36
37170;BME280;23062;13.952;100.608;2023-01-04T11:46:39;1013.07;;;30.07;44.56
37170;BME280;23062;13.952;100.608;2023-01-04T11:51:14;1013.15;;;30.05;45.01
37170;BME280;23062;13.952;100.608;2023-01-04T12:00:21;1013.36;;;30.05;45.70
37170;BME280;23062;13.952;100.608;2023-01-04T12:04:48;1013.42;;;30.06;46.02
37170;BME280;23062;13.952;100.608;2023-01-04T12:09:17;1013.47;;;30.03;46.34
37170;BME280;23062;13.952;100.608;2023-01-04T12:13:45;1013.54;;;30.02;46.53
37170;BME280;23062;13.952;100.608;2023-01-04T12:18:18;1013.56;;;29.99;46.59
37170;BME280;23062;13.952;100.608;2023-01-04T12:22:40;1013.69;;;29.96;46.89
37170;BME280;23062;13.952;100.608;2023-01-04T12:27:09;1013.77;;;29.96;46.86
37170;BME280;23062;13.952;100.608;2023-01-04T12:31:35;1013.85;;;29.95;46.79
37170;BME280;23062;13.952;100.608;2023-01-04T12:45:17;1014.09;;;29.74;48.15
37170;BME280;23062;13.952;100.608;2023-01-04T12:54:24;1014.32;;;29.71;48.90
37170;BME280;23062;13.952;100.608;2023-01-04T12:59:12;1014.38;;;29.70;49.24
37170;BME280;23062;13.952;100.608;2023-01-04T13:03:43;1014.46;;;29.74;49.50
37170;BME280;23062;13.952;100.608;2023-01-04T13:08:12;1014.57;;;29.73;49.75
37170;BME280;23062;13.952;100.608;2023-01-04T13:17:20;1014.68;;;29.83;50.11
37170;BME280;23062;13.952;100.608;2023-01-04T13:21:48;1014.77;;;29.84;50.42
37170;BME280;23062;13.952;100.608;2023-01-04T13:26:37;1014.86;;;29.85;50.30
37170;BME280;23062;13.952;100.608;2023-01-04T13:31:06;1014.85;;;29.78;50.11
37170;BME280;23062;13.952;100.608;2023-01-04T13:35:34;1014.95;;;29.90;49.66
37170;BME280;23062;13.952;100.608;2023-01-04T13:45:14;1014.99;;;30.07;48.68
37170;BME280;23062;13.952;100.608;2023-01-04T13:49:40;1015.03;;;30.08;48.61
37170;BME280;23062;13.952;100.608;2023-01-04T13:54:21;1015.09;;;30.07;48.56
37170;BME280;23062;13.952;100.608;2023-01-04T13:58:48;1015.13;;;30.06;48.53
37170;BME280;23062;13.952;100.608;2023-01-04T14:03:27;1015.17;;;30.04;48.59
37170;BME280;23062;13.952;100.608;2023-01-04T14:07:54;1015.23;;;30.03;48.55
37170;BME280;23062;13.952;100.608;2023-01-04T14:12:22;1015.29;;;30.02;48.47
37170;BME280;23062;13.952;100.608;2023-01-04T14:16:51;1015.38;;;30.01;48.39
37170;BME280;23062;13.952;100.608;2023-01-04T14:21:21;1015.39;;;30.00;48.27
37170;BME280;23062;13.952;100.608;2023-01-04T14:25:49;1015.42;;;29.99;48.18
37170;BME280;23062;13.952;100.608;2023-01-04T14:30:22;1015.43;;;29.97;48.22
37170;BME280;23062;13.952;100.608;2023-01-04T14:34:48;1015.47;;;29.97;48.22
37170;BME280;23062;13.952;100.608;2023-01-04T14:39:20;1015.42;;;29.95;48.25
37170;BME280;23062;13.952;100.608;2023-01-04T14:43:51;1015.43;;;29.95;48.17
37170;BME280;23062;13.952;100.608;2023-01-04T14:48:17;1015.43;;;29.94;47.99
37170;BME280;23062;13.952;100.608;2023-01-04T14:52:53;1015.43;;;29.93;47.97
37170;BME280;23062;13.952;100.608;2023-01-04T14:57:20;1015.41;;;29.92;47.81
37170;BME280;23062;13.952;100.608;2023-01-04T15:01:47;1015.47;;;29.90;47.88
37170;BME280;23062;13.952;100.608;2023-01-04T15:06:14;1015.48;;;29.90;47.79
37170;BME280;23062;13.952;100.608;2023-01-04T15:10:40;1015.54;;;29.90;47.71
37170;BME280;23062;13.952;100.608;2023-01-04T15:15:07;1015.52;;;29.89;47.61
37170;BME280;23062;13.952;100.608;2023-01-04T15:19:34;1015.49;;;29.88;47.56
37170;BME280;23062;13.952;100.608;2023-01-04T15:24:00;1015.45;;;29.87;47.63
37170;BME280;23062;13.952;100.608;2023-01-04T15:28:27;1015.44;;;29.87;47.58
37170;BME280;23062;13.952;100.608;2023-01-04T15:32:53;1015.39;;;29.86;47.47
37170;BME280;23062;13.952;100.608;2023-01-04T15:37:20;1015.38;;;29.85;47.58
37170;BME280;23062;13.952;100.608;2023-01-04T15:41:46;1015.36;;;29.85;47.51
37170;BME280;23062;13.952;100.608;2023-01-04T15:46:30;1015.33;;;29.85;47.43
37170;BME280;23062;13.952;100.608;2023-01-04T15:51:00;1015.31;;;29.83;47.50
37170;BME280;23062;13.952;100.608;2023-01-04T15:55:24;1015.32;;;29.83;47.51
37170;BME280;23062;13.952;100.608;2023-01-04T15:59:51;1015.30;;;29.81;47.50
37170;BME280;23062;13.952;100.608;2023-01-04T16:04:18;1015.25;;;29.81;47.43
37170;BME280;23062;13.952;100.608;2023-01-04T16:08:44;1015.20;;;29.80;47.53
37170;BME280;23062;13.952;100.608;2023-01-04T16:13:15;1015.15;;;29.79;47.58
37170;BME280;23062;13.952;100.608;2023-01-04T16:17:43;1015.16;;;29.79;47.62
37170;BME280;23062;13.952;100.608;2023-01-04T16:22:11;1015.12;;;29.79;47.61
37170;BME280;23062;13.952;100.608;2023-01-04T16:26:38;1015.12;;;29.77;47.66
37170;BME280;23062;13.952;100.608;2023-01-04T16:31:05;1015.02;;;29.77;47.62
37170;BME280;23062;13.952;100.608;2023-01-04T16:35:31;1015.03;;;29.76;47.84
37170;BME280;23062;13.952;100.608;2023-01-04T16:39:58;1015.03;;;29.76;47.86
37170;BME280;23062;13.952;100.608;2023-01-04T16:44:24;1015.02;;;29.74;47.98
37170;BME280;23062;13.952;100.608;2023-01-04T16:48:58;1015.03;;;29.75;48.06
37170;BME280;23062;13.952;100.608;2023-01-04T16:53:20;1015.02;;;29.74;48.03
37170;BME280;23062;13.952;100.608;2023-01-04T16:57:47;1015.03;;;29.72;48.04
37170;BME280;23062;13.952;100.608;2023-01-04T17:02:14;1015.08;;;29.72;48.02
37170;BME280;23062;13.952;100.608;2023-01-04T17:06:42;1015.00;;;29.71;48.06
37170;BME280;23062;13.952;100.608;2023-01-04T17:11:17;1015.06;;;29.70;48.18
37170;BME280;23062;13.952;100.608;2023-01-04T17:15:44;1015.11;;;29.70;48.14
37170;BME280;23062;13.952;100.608;2023-01-04T17:20:11;1015.07;;;29.69;48.35
37170;BME280;23062;13.952;100.608;2023-01-04T17:24:40;1015.10;;;29.69;48.18
37170;BME280;23062;13.952;100.608;2023-01-04T17:29:06;1015.05;;;29.69;48.24
37170;BME280;23062;13.952;100.608;2023-01-04T17:33:33;1014.99;;;29.68;48.40
37170;BME280;23062;13.952;100.608;2023-01-04T17:37:59;1014.98;;;29.67;48.41
37170;BME280;23062;13.952;100.608;2023-01-04T17:42:35;1015.04;;;29.66;48.33
37170;BME280;23062;13.952;100.608;2023-01-04T17:46:58;1015.02;;;29.65;48.48
37170;BME280;23062;13.952;100.608;2023-01-04T17:51:25;1015.00;;;29.64;48.56
37170;BME280;23062;13.952;100.608;2023-01-04T17:55:52;1014.95;;;29.64;48.61
37170;BME280;23062;13.952;100.608;2023-01-04T18:00:18;1014.97;;;29.64;48.58
37170;BME280;23062;13.952;100.608;2023-01-04T18:04:45;1014.95;;;29.62;48.64
37170;BME280;23062;13.952;100.608;2023-01-04T18:09:14;1014.97;;;29.62;48.74
37170;BME280;23062;13.952;100.608;2023-01-04T18:13:41;1014.91;;;29.60;48.67
37170;BME280;23062;13.952;100.608;2023-01-04T18:18:08;1014.90;;;29.59;48.67
37170;BME280;23062;13.952;100.608;2023-01-04T18:22:35;1014.84;;;29.57;48.65
37170;BME280;23062;13.952;100.608;2023-01-04T18:27:01;1014.78;;;29.56;48.61
37170;BME280;23062;13.952;100.608;2023-01-04T18:31:28;1014.79;;;29.55;48.61
37170;BME280;23062;13.952;100.608;2023-01-04T18:35:59;1014.78;;;29.54;48.71
37170;BME280;23062;13.952;100.608;2023-01-04T18:40:23;1014.72;;;29.51;48.64
37170;BME280;23062;13.952;100.608;2023-01-04T18:44:50;1014.73;;;29.52;48.62
37170;BME280;23062;13.952;100.608;2023-01-04T18:49:16;1014.70;;;29.50;48.57
37170;BME280;23062;13.952;100.608;2023-01-04T18:53:43;1014.68;;;29.50;48.67
37170;BME280;23062;13.952;100.608;2023-01-04T18:58:11;1014.58;;;29.48;48.66
37170;BME280;23062;13.952;100.608;2023-01-04T19:02:39;1014.54;;;29.46;48.75
37170;BME280;23062;13.952;100.608;2023-01-04T19:07:05;1014.48;;;29.45;48.64
37170;BME280;23062;13.952;100.608;2023-01-04T19:11:31;1014.45;;;29.44;48.62
37170;BME280;23062;13.952;100.608;2023-01-04T19:16:00;1014.41;;;29.43;48.73
37170;BME280;23062;13.952;100.608;2023-01-04T19:20:26;1014.33;;;29.41;48.74
37170;BME280;23062;13.952;100.608;2023-01-04T19:24:52;1014.33;;;29.40;48.83
37170;BME280;23062;13.952;100.608;2023-01-04T19:29:19;1014.33;;;29.41;48.88
37170;BME280;23062;13.952;100.608;2023-01-04T19:33:47;1014.32;;;29.40;48.95
37170;BME280;23062;13.952;100.608;2023-01-04T19:38:14;1014.29;;;29.39;49.14
37170;BME280;23062;13.952;100.608;2023-01-04T19:42:42;1014.29;;;29.38;49.13
37170;BME280;23062;13.952;100.608;2023-01-04T19:47:08;1014.27;;;29.37;49.18
37170;BME280;23062;13.952;100.608;2023-01-04T19:51:34;1014.23;;;29.36;49.30
37170;BME280;23062;13.952;100.608;2023-01-04T19:56:01;1014.23;;;29.34;49.34
37170;BME280;23062;13.952;100.608;2023-01-04T20:00:27;1014.22;;;29.34;49.43
37170;BME280;23062;13.952;100.608;2023-01-04T20:04:53;1014.13;;;29.33;49.46
37170;BME280;23062;13.952;100.608;2023-01-04T20:09:20;1014.13;;;29.33;49.56
37170;BME280;23062;13.952;100.608;2023-01-04T20:13:48;1014.05;;;29.32;49.63
37170;BME280;23062;13.952;100.608;2023-01-04T20:18:15;1013.99;;;29.32;49.68
37170;BME280;23062;13.952;100.608;2023-01-04T20:22:42;1014.00;;;29.32;49.81
37170;BME280;23062;13.952;100.608;2023-01-04T20:27:09;1014.02;;;29.32;49.84
37170;BME280;23062;13.952;100.608;2023-01-04T20:31:35;1014.02;;;29.30;49.90
37170;BME280;23062;13.952;100.608;2023-01-04T20:36:05;1014.04;;;29.29;50.00
37170;BME280;23062;13.952;100.608;2023-01-04T20:40:34;1013.99;;;29.28;50.01
37170;BME280;23062;13.952;100.608;2023-01-04T20:45:00;1014.00;;;29.29;50.12
37170;BME280;23062;13.952;100.608;2023-01-04T20:49:26;1014.00;;;29.28;50.19
37170;BME280;23062;13.952;100.608;2023-01-04T20:53:53;1014.01;;;29.27;50.25
37170;BME280;23062;13.952;100.608;2023-01-04T20:58:21;1013.97;;;29.11;51.01
37170;BME280;23062;13.952;100.608;2023-01-04T21:02:48;1014.03;;;28.88;51.82
37170;BME280;23062;13.952;100.608;2023-01-04T21:07:14;1013.96;;;28.85;51.87
37170;BME280;23062;13.952;100.608;2023-01-04T21:11:40;1013.95;;;28.60;52.49
37170;BME280;23062;13.952;100.608;2023-01-04T21:16:07;1013.98;;;28.39;52.94
37170;BME280;23062;13.952;100.608;2023-01-04T21:20:41;1014.01;;;28.15;53.58
37170;BME280;23062;13.952;100.608;2023-01-04T21:25:07;1013.99;;;28.10;53.77
37170;BME280;23062;13.952;100.608;2023-01-04T21:29:37;1014.02;;;28.02;54.01
37170;BME280;23062;13.952;100.608;2023-01-04T21:34:03;1014.01;;;27.96;54.17
37170;BME280;23062;13.952;100.608;2023-01-04T21:38:29;1014.05;;;27.90;54.15
37170;BME280;23062;13.952;100.608;2023-01-04T21:42:59;1014.07;;;27.85;54.28
37170;BME280;23062;13.952;100.608;2023-01-04T21:47:26;1014.15;;;27.88;54.62
37170;BME280;23062;13.952;100.608;2023-01-04T21:51:54;1014.21;;;27.80;56.00
37170;BME280;23062;13.952;100.608;2023-01-04T21:56:22;1014.23;;;27.79;56.27
37170;BME280;23062;13.952;100.608;2023-01-04T22:00:48;1014.20;;;27.46;57.81
37170;BME280;23062;13.952;100.608;2023-01-04T22:05:14;1014.22;;;27.19;59.45
37170;BME280;23062;13.952;100.608;2023-01-04T22:09:41;1014.32;;;27.05;59.72
37170;BME280;23062;13.952;100.608;2023-01-04T22:14:08;1014.37;;;26.93;60.59
37170;BME280;23062;13.952;100.608;2023-01-04T22:18:35;1014.35;;;26.83;60.37
37170;BME280;23062;13.952;100.608;2023-01-04T22:23:02;1014.35;;;26.78;60.06
37170;BME280;23062;13.952;100.608;2023-01-04T22:27:28;1014.40;;;26.76;60.21
37170;BME280;23062;13.952;100.608;2023-01-04T22:31:54;1014.42;;;26.73;59.91
37170;BME280;23062;13.952;100.608;2023-01-04T22:36:21;1014.49;;;26.65;60.29
37170;BME280;23062;13.952;100.608;2023-01-04T22:40:48;1014.51;;;26.97;59.33
37170;BME280;23062;13.952;100.608;2023-01-04T22:45:14;1014.45;;;27.31;58.45
37170;BME280;23062;13.952;100.608;2023-01-04T22:49:41;1014.43;;;27.39;58.01
37170;BME280;23062;13.952;100.608;2023-01-04T22:54:07;1014.47;;;27.62;57.28
37170;BME280;23062;13.952;100.608;2023-01-04T22:58:35;1014.47;;;27.86;55.94
37170;BME280;23062;13.952;100.608;2023-01-04T23:03:03;1014.51;;;27.96;55.02
37170;BME280;23062;13.952;100.608;2023-01-04T23:07:30;1014.51;;;28.01;54.65
37170;BME280;23062;13.952;100.608;2023-01-04T23:11:56;1014.54;;;28.04;53.43
37170;BME280;23062;13.952;100.608;2023-01-04T23:16:22;1014.63;;;28.08;53.04
37170;BME280;23062;13.952;100.608;2023-01-04T23:20:54;1014.63;;;28.09;52.38
37170;BME280;23062;13.952;100.608;2023-01-04T23:25:21;1014.67;;;28.11;52.36
37170;BME280;23062;13.952;100.608;2023-01-04T23:29:48;1014.74;;;28.11;52.22
37170;BME280;23062;13.952;100.608;2023-01-04T23:34:14;1014.67;;;28.09;51.92
37170;BME280;23062;13.952;100.608;2023-01-04T23:38:41;1014.67;;;28.10;52.31
37170;BME280;23062;13.952;100.608;2023-01-04T23:43:09;1014.77;;;28.10;51.99
37170;BME280;23062;13.952;100.608;2023-01-04T23:47:35;1014.81;;;28.10;51.92
37170;BME280;23062;13.952;100.608;2023-01-04T23:52:05;1014.88;;;28.09;51.90
37170;BME280;23062;13.952;100.608;2023-01-04T23:56:32;1014.94;;;28.10;51.59
